Dru Lirette — WDB9956 — position and weather

sailwx.info

Track history (hours):
 
Tides and Currents Weather Stations Pressure Air Temp Water Temp Dewpoint Dewpoint Depression Visibility Wind Speed Wind Dir Waves Ship Positions

Dru Lirette

Owner: AEP River Operations LLC, Chesterfield, MO. More information available from US FCC via Universal Licensing System and Coast Guard Vessel Documentation Center.

Last reported at 2015-Aug-30 03:31 UTC. Time now 2015-Sep-01 08:00 UTC.
Position N 38°45' W 085°01'.

Length 46 m; draft 10 m.

Type: Towing. MMSI: 366985660.

Date/timePositionNaut miles runAvg speedWind from/ knotsBaromVisibWave heightAir tempDewpointWater temp
2015-Aug-30 03:31N 38°45' W 085°01'13 1.8
2015-Aug-29 20:31N 38°56' W 084°52'8 2.4
2015-Aug-29 17:08N 39°04' W 084°53'4 7.3
2015-Aug-29 16:32N 39°06' W 084°49'5 5.4
2015-Aug-29 15:34N 39°07' W 084°42'1 0.9
2015-Aug-29 14:34N 39°06' W 084°41'0 0.0
2015-Aug-29 13:33N 39°06' W 084°41'0 0.0
2015-Aug-29 12:32N 39°06' W 084°41'1 1.1
2015-Aug-29 11:33N 39°06' W 084°40'6 6.3
2015-Aug-29 10:33N 39°05' W 084°32'5 4.5
2015-Aug-29 09:33N 39°04' W 084°26'7 6.7
2015-Aug-29 08:33N 39°01' W 084°19'7 7.0
2015-Aug-29 07:32N 38°54' W 084°15'4 3.6
2015-Aug-29 06:33N 38°51' W 084°14'0 0.5
2015-Aug-29 05:33N 38°50' W 084°14'1 0.6
2015-Aug-29 04:33N 38°51' W 084°14'1 0.6
2015-Aug-29 03:27N 38°50' W 084°14'4 3.4
2015-Aug-29 02:23N 38°48' W 084°10'  
2015-Aug-22 13:29N 38°39' W 083°44'4 3.8
2015-Aug-22 12:33N 38°41' W 083°47'3 2.7
2015-Aug-22 11:27N 38°43' W 083°50'0 0.0
2015-Aug-22 09:17N 38°43' W 083°50'2 1.0
2015-Aug-22 07:33N 38°44' W 083°51'1 1.3
2015-Aug-22 06:32N 38°45' W 083°52'0 0.0
2015-Aug-22 05:33N 38°45' W 083°52'0 0.1
2015-Aug-22 04:33N 38°45' W 083°52'9 4.6
2015-Aug-22 02:33N 38°46' W 084°04'5 5.0
2015-Aug-22 01:33N 38°48' W 084°10'2 2.0
2015-Aug-22 00:33N 38°48' W 084°12'3 2.8
2015-Aug-21 23:33N 38°51' W 084°14'0 0.2
2015-Aug-21 22:30N 38°51' W 084°14'0 0.2
2015-Aug-21 21:12N 38°50' W 084°14'0 0.1
2015-Aug-21 19:32N 38°51' W 084°14'1 1.2
2015-Aug-21 18:33N 38°52' W 084°14'5 4.6
2015-Aug-21 17:33N 38°56' W 084°16'5 4.6
2015-Aug-21 16:33N 39°00' W 084°18'1 0.8
2015-Aug-21 15:32N 39°01' W 084°19'0 0.1
2015-Aug-21 14:32N 39°01' W 084°19'5 4.5
2015-Aug-21 13:31N 39°03' W 084°25'1 1.5
2015-Aug-21 12:32N 39°04' W 084°26'0 0.0
2015-Aug-21 11:33N 39°04' W 084°26'0 0.0
2015-Aug-21 10:32N 39°04' W 084°26'1 0.8
2015-Aug-21 09:33N 39°05' W 084°26'3 3.2
2015-Aug-21 08:33N 39°06' W 084°29'4 3.7
2015-Aug-21 07:33N 39°05' W 084°34'3 3.1
2015-Aug-21 06:33N 39°05' W 084°38'1 1.1
2015-Aug-21 05:31N 39°05' W 084°39'3 2.7
2015-Aug-21 04:32N 39°07' W 084°42'4 3.8
2015-Aug-21 03:31N 39°07' W 084°47'  
Track history (hours):
 
Tides and Currents Weather Stations Pressure Air Temp Water Temp Dewpoint Dewpoint Depression Visibility Wind Speed Wind Dir Waves Ship Positions

Dru Lirette

Owner: AEP River Operations LLC, Chesterfield, MO. More information available from US FCC via Universal Licensing System and Coast Guard Vessel Documentation Center.

Last reported at 2015-Aug-30 03:31 UTC. Time now 2015-Sep-01 08:00 UTC.
Position N 38°45' W 085°01'.

Length 46 m; draft 10 m.

Type: Towing. MMSI: 366985660.

Date/timePositionNaut miles runAvg speedWind from/ knotsBaromVisibWave heightAir tempDewpointWater temp
2015-Aug-30 03:31N 38°45' W 085°01'13 1.8
2015-Aug-29 20:31N 38°56' W 084°52'8 2.4
2015-Aug-29 17:08N 39°04' W 084°53'4 7.3
2015-Aug-29 16:32N 39°06' W 084°49'5 5.4
2015-Aug-29 15:34N 39°07' W 084°42'1 0.9
2015-Aug-29 14:34N 39°06' W 084°41'0 0.0
2015-Aug-29 13:33N 39°06' W 084°41'0 0.0
2015-Aug-29 12:32N 39°06' W 084°41'1 1.1
2015-Aug-29 11:33N 39°06' W 084°40'6 6.3
2015-Aug-29 10:33N 39°05' W 084°32'5 4.5
2015-Aug-29 09:33N 39°04' W 084°26'7 6.7
2015-Aug-29 08:33N 39°01' W 084°19'7 7.0
2015-Aug-29 07:32N 38°54' W 084°15'4 3.6
2015-Aug-29 06:33N 38°51' W 084°14'0 0.5
2015-Aug-29 05:33N 38°50' W 084°14'1 0.6
2015-Aug-29 04:33N 38°51' W 084°14'1 0.6
2015-Aug-29 03:27N 38°50' W 084°14'4 3.4
2015-Aug-29 02:23N 38°48' W 084°10'  
2015-Aug-22 13:29N 38°39' W 083°44'4 3.8
2015-Aug-22 12:33N 38°41' W 083°47'3 2.7
2015-Aug-22 11:27N 38°43' W 083°50'0 0.0
2015-Aug-22 09:17N 38°43' W 083°50'2 1.0
2015-Aug-22 07:33N 38°44' W 083°51'1 1.3
2015-Aug-22 06:32N 38°45' W 083°52'0 0.0
2015-Aug-22 05:33N 38°45' W 083°52'0 0.1
2015-Aug-22 04:33N 38°45' W 083°52'9 4.6
2015-Aug-22 02:33N 38°46' W 084°04'5 5.0
2015-Aug-22 01:33N 38°48' W 084°10'2 2.0
2015-Aug-22 00:33N 38°48' W 084°12'3 2.8
2015-Aug-21 23:33N 38°51' W 084°14'0 0.2
2015-Aug-21 22:30N 38°51' W 084°14'0 0.2
2015-Aug-21 21:12N 38°50' W 084°14'0 0.1
2015-Aug-21 19:32N 38°51' W 084°14'1 1.2
2015-Aug-21 18:33N 38°52' W 084°14'5 4.6
2015-Aug-21 17:33N 38°56' W 084°16'5 4.6
2015-Aug-21 16:33N 39°00' W 084°18'1 0.8
2015-Aug-21 15:32N 39°01' W 084°19'0 0.1
2015-Aug-21 14:32N 39°01' W 084°19'5 4.5
2015-Aug-21 13:31N 39°03' W 084°25'1 1.5
2015-Aug-21 12:32N 39°04' W 084°26'0 0.0
2015-Aug-21 11:33N 39°04' W 084°26'0 0.0
2015-Aug-21 10:32N 39°04' W 084°26'1 0.8
2015-Aug-21 09:33N 39°05' W 084°26'3 3.2
2015-Aug-21 08:33N 39°06' W 084°29'4 3.7
2015-Aug-21 07:33N 39°05' W 084°34'3 3.1
2015-Aug-21 06:33N 39°05' W 084°38'1 1.1
2015-Aug-21 05:31N 39°05' W 084°39'3 2.7
2015-Aug-21 04:32N 39°07' W 084°42'4 3.8
2015-Aug-21 03:31N 39°07' W 084°47'  

Dump ship's entire track history